createdAt,value
2022-12-23T00:01:42.197Z,9.00
2022-12-23T00:04:10.924Z,7.00
2022-12-23T00:06:39.614Z,7.00
2022-12-23T00:09:08.081Z,8.00
2022-12-23T00:11:36.471Z,5.00
2022-12-23T00:14:23.898Z,6.00
2022-12-23T00:16:52.395Z,7.50
2022-12-23T00:19:20.952Z,5.00
2022-12-23T00:21:49.435Z,8.00
2022-12-23T00:24:17.934Z,7.00
2022-12-23T00:26:46.401Z,8.50
2022-12-23T00:29:14.880Z,8.00
2022-12-23T00:31:43.305Z,6.00
2022-12-23T00:34:13.367Z,6.00
2022-12-23T00:36:41.844Z,7.00
2022-12-23T00:39:31.855Z,7.00
2022-12-23T00:42:19.180Z,5.00
2022-12-23T00:44:47.664Z,8.00
2022-12-23T00:47:36.030Z,6.00
2022-12-23T00:50:05.107Z,4.50
2022-12-23T00:52:33.578Z,6.50
2022-12-23T00:55:02.052Z,8.00
2022-12-23T00:57:30.551Z,7.00
2022-12-23T01:00:01.887Z,7.00
2022-12-23T01:02:49.118Z,9.00
2022-12-23T01:05:36.645Z,7.33
2022-12-23T01:08:07.574Z,7.00
2022-12-23T01:10:37.636Z,7.00
2022-12-23T01:13:06.201Z,7.50
2022-12-23T01:15:34.790Z,8.00
2022-12-23T01:18:03.347Z,9.00
2022-12-23T01:20:31.731Z,8.00
2022-12-23T01:23:00.228Z,8.00
2022-12-23T01:25:28.794Z,8.00
2022-12-23T01:27:57.276Z,5.00
2022-12-23T01:30:25.756Z,6.00
2022-12-23T01:32:54.137Z,8.00
2022-12-23T01:35:22.638Z,7.00
2022-12-23T01:37:51.104Z,7.00
2022-12-23T01:40:19.894Z,8.00
2022-12-23T01:42:48.277Z,6.67
2022-12-23T01:45:28.266Z,8.00
2022-12-23T01:48:12.062Z,7.00
2022-12-23T01:50:43.306Z,6.00
2022-12-23T01:53:31.253Z,7.00
2022-12-23T01:56:14.174Z,7.00
2022-12-23T01:58:46.842Z,7.33
2022-12-23T02:01:33.906Z,7.50
2022-12-23T02:04:08.737Z,7.00
2022-12-23T02:07:05.757Z,7.00
2022-12-23T02:09:39.652Z,8.00
2022-12-23T02:12:47.156Z,5.00
2022-12-23T02:15:52.801Z,5.50
2022-12-23T02:18:33.261Z,8.00
2022-12-23T02:21:08.237Z,5.00
2022-12-23T02:26:25.951Z,7.50
2022-12-23T02:29:32.523Z,6.50
2022-12-23T02:32:06.430Z,7.00
2022-12-23T02:35:16.917Z,6.50
2022-12-23T02:38:14.974Z,7.00
2022-12-23T02:40:54.408Z,7.00
2022-12-23T02:43:40.933Z,4.00
2022-12-23T02:46:21.537Z,8.00
2022-12-23T02:49:05.533Z,6.00
2022-12-23T02:51:38.674Z,7.00
2022-12-23T02:54:10.199Z,6.00
2022-12-23T02:56:40.595Z,7.00
2022-12-23T02:59:15.126Z,7.33
2022-12-23T03:01:44.451Z,4.00
2022-12-23T03:04:13.010Z,6.00
2022-12-23T03:06:44.155Z,8.00
2022-12-23T03:09:23.163Z,7.50
2022-12-23T03:11:53.944Z,6.00
2022-12-23T03:14:55.179Z,6.00
2022-12-23T03:17:47.501Z,8.00
2022-12-23T03:20:25.933Z,7.00
2022-12-23T03:23:22.596Z,5.50
2022-12-23T03:26:34.608Z,7.00
2022-12-23T03:29:19.654Z,6.00
2022-12-23T03:31:48.421Z,8.00
2022-12-23T03:34:21.441Z,6.00
2022-12-23T03:36:53.268Z,9.00
2022-12-23T03:39:26.368Z,3.00
2022-12-23T03:42:02.825Z,8.00
2022-12-23T03:44:37.287Z,8.00
2022-12-23T03:47:11.157Z,7.00
2022-12-23T03:49:47.019Z,6.00
2022-12-23T03:52:21.485Z,5.50
2022-12-23T03:55:03.942Z,7.00
2022-12-23T03:57:40.914Z,8.00
2022-12-23T04:00:10.125Z,8.00
2022-12-23T04:02:59.523Z,9.00
2022-12-23T04:05:32.766Z,8.00
2022-12-23T04:08:04.346Z,9.50
2022-12-23T04:10:32.724Z,9.00
2022-12-23T04:13:01.430Z,7.00
2022-12-23T04:15:30.091Z,6.50
2022-12-23T04:17:58.922Z,9.00
2022-12-23T04:20:27.283Z,4.00
2022-12-23T04:22:55.746Z,5.00
2022-12-23T04:25:24.229Z,7.50
2022-12-23T04:27:52.727Z,7.00
2022-12-23T04:30:21.189Z,7.50
2022-12-23T04:32:49.568Z,7.00
2022-12-23T04:35:18.467Z,7.50
2022-12-23T04:37:46.736Z,7.00
2022-12-23T04:40:15.531Z,6.00
2022-12-23T04:42:43.913Z,8.00
2022-12-23T04:45:12.291Z,7.00
2022-12-23T04:47:41.182Z,6.00
2022-12-23T04:50:14.926Z,6.00
2022-12-23T04:52:44.125Z,6.00
2022-12-23T04:55:12.576Z,8.00
2022-12-23T04:57:41.250Z,6.50
2022-12-23T05:00:10.449Z,7.50
2022-12-23T05:02:38.933Z,6.50
2022-12-23T05:05:07.970Z,7.00
2022-12-23T05:07:36.305Z,4.50
2022-12-23T05:10:05.205Z,7.00
2022-12-23T05:12:33.670Z,6.00
2022-12-23T05:15:01.953Z,7.50
2022-12-23T05:17:30.854Z,5.50
2022-12-23T05:19:59.335Z,6.00
2022-12-23T05:22:27.925Z,7.00
2022-12-23T05:24:56.393Z,7.00
2022-12-23T05:27:24.768Z,7.00
2022-12-23T05:29:53.150Z,8.00
2022-12-23T05:32:21.694Z,7.50
2022-12-23T05:34:50.224Z,4.00
2022-12-23T05:37:18.698Z,8.00
2022-12-23T05:39:47.077Z,7.00
2022-12-23T05:42:19.653Z,7.00
2022-12-23T05:44:48.138Z,7.00
2022-12-23T05:47:16.515Z,7.50
2022-12-23T05:49:45.099Z,6.50
2022-12-23T05:52:13.587Z,5.00
2022-12-23T05:54:42.063Z,6.50
2022-12-23T05:57:10.487Z,5.00
2022-12-23T05:59:39.024Z,5.00
2022-12-23T06:02:07.749Z,4.00
2022-12-23T06:04:36.499Z,7.00
2022-12-23T06:07:05.086Z,8.00
2022-12-23T06:09:33.560Z,6.00
2022-12-23T06:12:02.048Z,8.00
2022-12-23T06:14:30.464Z,7.00
2022-12-23T06:16:59.080Z,5.50
2022-12-23T06:19:27.712Z,6.00
2022-12-23T06:21:56.176Z,4.00
2022-12-23T06:24:24.761Z,6.00
2022-12-23T06:26:57.087Z,12.00
2022-12-23T06:29:26.240Z,8.00
2022-12-23T06:31:54.764Z,7.00
2022-12-23T06:34:23.510Z,8.33
2022-12-23T06:36:52.001Z,8.00
2022-12-23T06:39:20.670Z,8.50
2022-12-23T06:41:49.257Z,9.00
2022-12-23T06:44:17.939Z,6.00
2022-12-23T06:46:48.773Z,9.00
2022-12-23T06:49:17.259Z,9.00
2022-12-23T06:51:45.678Z,8.00
2022-12-23T06:54:14.543Z,7.00
2022-12-23T06:56:42.915Z,11.00
2022-12-23T06:59:11.489Z,8.00
2022-12-23T07:01:41.025Z,8.00
2022-12-23T07:04:10.624Z,6.00
2022-12-23T07:06:40.011Z,7.00
2022-12-23T07:09:08.424Z,9.50
2022-12-23T07:11:36.886Z,10.50
2022-12-23T07:14:05.351Z,8.50
2022-12-23T07:16:33.878Z,9.00
2022-12-23T07:19:02.927Z,7.00
2022-12-23T07:21:31.413Z,8.50
2022-12-23T07:24:00.208Z,8.00
2022-12-23T07:26:29.010Z,8.00
2022-12-23T07:28:57.886Z,3.00
2022-12-23T07:31:26.415Z,9.00
2022-12-23T07:33:55.047Z,10.00
2022-12-23T07:36:23.534Z,8.00
2022-12-23T07:38:52.324Z,8.00
2022-12-23T07:41:20.703Z,11.00
2022-12-23T07:43:49.181Z,6.00
2022-12-23T07:46:17.696Z,7.00
2022-12-23T07:48:46.357Z,8.00
2022-12-23T07:51:14.937Z,7.00
2022-12-23T07:53:43.408Z,7.00
2022-12-23T07:56:12.002Z,9.00
2022-12-23T07:58:40.383Z,9.00
2022-12-23T08:01:09.060Z,9.00
2022-12-23T08:03:38.136Z,9.50
2022-12-23T08:06:09.295Z,6.50
2022-12-23T08:08:37.887Z,12.00
2022-12-23T08:11:08.977Z,12.00
2022-12-23T08:13:39.155Z,10.50
2022-12-23T08:16:08.520Z,8.00
2022-12-23T08:18:39.967Z,8.00
2022-12-23T08:21:15.124Z,7.67
2022-12-23T08:23:44.131Z,7.00
2022-12-23T08:26:14.067Z,11.00
2022-12-23T08:28:43.597Z,8.00
2022-12-23T08:31:12.009Z,9.00
2022-12-23T08:33:43.702Z,10.00
2022-12-23T08:36:22.850Z,7.00
2022-12-23T08:38:53.789Z,10.50
2022-12-23T08:41:25.668Z,8.50
2022-12-23T08:43:54.416Z,11.00
2022-12-23T08:46:22.905Z,2.50
2022-12-23T08:48:52.196Z,11.00
2022-12-23T08:51:22.622Z,10.00
2022-12-23T08:53:57.920Z,8.00
2022-12-23T08:56:34.589Z,8.00
2022-12-23T08:59:03.548Z,10.67
2022-12-23T09:01:34.206Z,8.00
2022-12-23T09:04:06.924Z,7.00
2022-12-23T09:06:38.502Z,11.00
2022-12-23T09:09:08.008Z,8.50
2022-12-23T09:11:36.693Z,10.00
2022-12-23T09:14:05.772Z,6.00
2022-12-23T09:16:34.550Z,8.00
2022-12-23T09:19:03.475Z,11.00
2022-12-23T09:21:32.152Z,6.00
2022-12-23T09:24:00.539Z,9.50
2022-12-23T09:26:31.014Z,7.50
2022-12-23T09:28:59.849Z,10.00
2022-12-23T09:31:35.827Z,10.00
2022-12-23T09:34:06.576Z,11.00
2022-12-23T09:36:34.951Z,8.00
2022-12-23T09:39:04.483Z,8.50
2022-12-23T09:41:33.021Z,11.00
2022-12-23T09:44:58.943Z,9.50
2022-12-23T09:47:28.965Z,8.00
2022-12-23T09:50:02.901Z,11.00
2022-12-23T09:52:43.158Z,10.50
2022-12-23T09:55:12.635Z,6.00
2022-12-23T09:58:01.440Z,9.50
2022-12-23T10:00:38.720Z,9.00
2022-12-23T10:03:29.026Z,7.00
2022-12-23T10:06:11.278Z,9.50
2022-12-23T10:08:46.263Z,9.00
2022-12-23T10:11:21.419Z,9.50
2022-12-23T10:14:12.093Z,2.00
2022-12-23T10:16:44.497Z,9.00
2022-12-23T10:19:21.627Z,11.00
2022-12-23T10:21:53.633Z,8.00
2022-12-23T10:24:25.446Z,9.00
2022-12-23T10:26:55.974Z,11.33
2022-12-23T10:29:26.620Z,10.67
2022-12-23T10:32:03.927Z,12.00
2022-12-23T10:34:41.480Z,11.00
2022-12-23T10:37:21.259Z,5.00
2022-12-23T10:40:14.398Z,12.00
2022-12-23T10:43:01.198Z,10.00
2022-12-23T10:45:57.162Z,11.00
2022-12-23T10:48:38.812Z,4.67
2022-12-23T10:51:16.368Z,11.00
2022-12-23T10:53:55.704Z,10.67
2022-12-23T10:56:24.568Z,9.50
2022-12-23T10:58:58.653Z,10.00
2022-12-23T11:01:31.862Z,9.50
2022-12-23T11:04:19.085Z,8.33
2022-12-23T11:07:10.633Z,6.00
2022-12-23T11:10:12.881Z,10.00
2022-12-23T11:12:46.414Z,9.33
2022-12-23T11:15:27.644Z,10.00
2022-12-23T11:18:14.557Z,9.00
2022-12-23T11:21:02.900Z,9.67
2022-12-23T11:23:36.762Z,9.50
2022-12-23T11:26:10.771Z,10.00
2022-12-23T11:28:50.412Z,10.00
2022-12-23T11:31:28.310Z,8.00
2022-12-23T11:34:00.156Z,6.00
2022-12-23T11:36:30.667Z,11.00
2022-12-23T11:39:06.939Z,6.67
2022-12-23T11:41:44.523Z,8.50
2022-12-23T11:44:39.310Z,10.00
2022-12-23T11:47:23.091Z,11.50
2022-12-23T11:49:54.743Z,7.00
2022-12-23T11:52:25.244Z,12.00
2022-12-23T11:54:59.158Z,8.00
2022-12-23T11:57:42.386Z,6.67
2022-12-23T12:00:26.062Z,10.00
2022-12-23T12:02:57.391Z,10.67
2022-12-23T12:05:31.615Z,10.00
2022-12-23T12:08:11.837Z,9.00
2022-12-23T12:10:41.033Z,11.00
2022-12-23T12:13:24.754Z,11.00
2022-12-23T12:16:18.174Z,9.50
2022-12-23T12:18:53.626Z,8.00
2022-12-23T12:21:29.471Z,13.33
2022-12-23T12:24:20.245Z,13.00
2022-12-23T12:26:52.816Z,10.00
2022-12-23T12:29:33.316Z,12.00
2022-12-23T12:32:02.397Z,12.00
2022-12-23T12:34:52.376Z,11.50
2022-12-23T12:37:41.736Z,13.00
2022-12-23T12:40:25.383Z,11.00
2022-12-23T12:43:13.008Z,4.50
2022-12-23T12:45:48.551Z,11.50
2022-12-23T12:48:28.115Z,13.00
2022-12-23T12:51:15.105Z,11.50
2022-12-23T12:53:53.422Z,11.00
2022-12-23T12:56:35.650Z,12.67
2022-12-23T12:59:05.135Z,10.00
2022-12-23T13:01:42.021Z,11.00
2022-12-23T13:04:30.148Z,12.00
2022-12-23T13:07:15.028Z,11.00
2022-12-23T13:10:04.696Z,9.00
2022-12-23T13:12:45.940Z,10.00
2022-12-23T13:15:41.711Z,13.50
2022-12-23T13:18:49.504Z,12.50
2022-12-23T13:21:23.099Z,11.00
2022-12-23T13:24:03.592Z,10.00
2022-12-23T13:26:54.137Z,8.50
2022-12-23T13:29:56.202Z,10.50
2022-12-23T13:32:37.223Z,12.00
2022-12-23T13:35:36.548Z,13.50
2022-12-23T13:38:27.116Z,13.50
2022-12-23T13:41:01.335Z,8.00
2022-12-23T13:43:40.947Z,9.00
2022-12-23T13:46:21.655Z,6.00
2022-12-23T13:49:10.921Z,14.00
2022-12-23T13:51:53.833Z,12.50
2022-12-23T13:54:33.178Z,12.50
2022-12-23T13:57:28.688Z,11.00
2022-12-23T14:00:23.492Z,15.00
2022-12-23T14:03:05.880Z,11.00
2022-12-23T14:05:41.242Z,14.00
2022-12-23T14:08:18.846Z,16.00
2022-12-23T14:11:00.734Z,6.00
2022-12-23T14:13:37.934Z,11.00
2022-12-23T14:16:21.895Z,13.00
2022-12-23T14:18:53.209Z,14.00
2022-12-23T14:21:21.695Z,13.00
2022-12-23T14:24:07.909Z,14.00
2022-12-23T14:27:24.387Z,11.00
2022-12-23T14:30:36.094Z,15.00
2022-12-23T14:33:28.833Z,14.00
2022-12-23T14:36:14.934Z,12.00
2022-12-23T14:38:43.516Z,11.00
2022-12-23T14:41:51.567Z,12.50
2022-12-23T14:44:36.939Z,10.33
2022-12-23T14:47:28.525Z,12.00
2022-12-23T14:49:57.161Z,11.50
2022-12-23T14:52:51.001Z,10.00
2022-12-23T14:55:31.566Z,12.00
2022-12-23T14:58:20.341Z,12.00
2022-12-23T15:00:57.715Z,15.00
2022-12-23T15:03:35.305Z,12.00
2022-12-23T15:06:05.630Z,10.50
2022-12-23T15:08:40.913Z,12.00
2022-12-23T15:11:19.287Z,13.00
2022-12-23T15:13:55.477Z,13.00
2022-12-23T15:16:40.081Z,11.50
2022-12-23T15:19:18.935Z,13.00
2022-12-23T15:21:59.640Z,11.00
2022-12-23T15:24:31.753Z,7.00
2022-12-23T15:29:54.031Z,11.00
2022-12-23T15:32:26.670Z,13.50
2022-12-23T15:35:06.033Z,8.50
2022-12-23T15:37:35.227Z,13.00
2022-12-23T15:40:12.013Z,12.00
2022-12-23T15:42:48.055Z,15.00
2022-12-23T15:45:38.051Z,18.00
2022-12-23T15:48:23.834Z,17.00
2022-12-23T15:51:07.811Z,14.00
2022-12-23T15:53:50.509Z,14.00
2022-12-23T15:56:27.752Z,13.00
2022-12-23T15:58:57.003Z,9.50
2022-12-23T16:01:26.859Z,21.00
2022-12-23T16:04:00.311Z,16.50
2022-12-23T16:06:35.910Z,18.00
2022-12-23T16:09:22.462Z,15.00
2022-12-23T16:12:23.187Z,15.00
2022-12-23T16:14:57.649Z,15.50
2022-12-23T16:17:32.818Z,14.00
2022-12-23T16:20:33.601Z,15.50
2022-12-23T16:23:02.736Z,14.00
2022-12-23T16:25:34.320Z,10.00
2022-12-23T16:28:18.491Z,13.00
2022-12-23T16:30:49.872Z,13.00
2022-12-23T16:33:37.275Z,15.00
2022-12-23T16:36:38.462Z,13.00
2022-12-23T16:39:09.828Z,11.50
2022-12-23T16:41:38.164Z,11.00
2022-12-23T16:44:06.497Z,11.00
2022-12-23T16:46:39.324Z,13.00
2022-12-23T16:49:11.363Z,13.50
2022-12-23T16:51:40.260Z,13.00
2022-12-23T16:54:16.931Z,13.67
2022-12-23T16:56:50.344Z,15.00
2022-12-23T16:59:18.913Z,14.00
2022-12-23T17:01:48.999Z,14.50
2022-12-23T17:04:17.415Z,8.00
2022-12-23T17:06:46.857Z,14.00
2022-12-23T17:09:17.558Z,12.00
2022-12-23T17:11:48.387Z,14.00
2022-12-23T17:14:22.480Z,15.50
2022-12-23T17:16:51.655Z,13.00
2022-12-23T17:19:28.010Z,13.00
2022-12-23T17:22:02.619Z,14.00
2022-12-23T17:24:31.576Z,12.00
2022-12-23T17:26:59.982Z,14.00
2022-12-23T17:29:29.058Z,12.50
2022-12-23T17:31:57.583Z,14.00
2022-12-23T17:34:26.234Z,15.00
2022-12-23T17:36:54.881Z,13.00
2022-12-23T17:39:23.506Z,16.00
2022-12-23T17:41:52.190Z,12.00
2022-12-23T17:44:20.660Z,12.50
2022-12-23T17:46:49.156Z,13.00
2022-12-23T17:49:17.625Z,13.50
2022-12-23T17:51:46.214Z,13.50
2022-12-23T17:54:25.082Z,10.33
2022-12-23T17:56:53.735Z,13.00
2022-12-23T17:59:22.429Z,14.00
2022-12-23T18:01:51.619Z,12.00
2022-12-23T18:04:21.724Z,13.00
2022-12-23T18:06:50.225Z,12.50
2022-12-23T18:09:19.504Z,13.00
2022-12-23T18:11:48.214Z,14.00
2022-12-23T18:14:19.334Z,13.50
2022-12-23T18:16:47.817Z,13.00
2022-12-23T18:19:18.976Z,6.50
2022-12-23T18:21:48.299Z,13.00
2022-12-23T18:24:17.360Z,14.00
2022-12-23T18:26:45.776Z,13.50
2022-12-23T18:29:14.127Z,12.00
2022-12-23T18:31:51.095Z,12.50
2022-12-23T18:34:21.327Z,13.50
2022-12-23T18:36:52.251Z,12.00
2022-12-23T18:39:21.565Z,14.00
2022-12-23T18:41:50.057Z,13.00
2022-12-23T18:44:20.882Z,14.00
2022-12-23T18:46:50.875Z,14.50
2022-12-23T18:49:19.586Z,13.00
2022-12-23T18:51:48.392Z,14.00
2022-12-23T18:54:17.373Z,14.00
2022-12-23T18:56:45.851Z,14.00
2022-12-23T18:59:24.229Z,14.00
2022-12-23T19:01:58.383Z,12.00
2022-12-23T19:04:27.582Z,14.50
2022-12-23T19:06:57.389Z,14.00
2022-12-23T19:09:25.886Z,10.00
2022-12-23T19:11:54.577Z,14.00
2022-12-23T19:14:23.682Z,12.00
2022-12-23T19:16:52.824Z,14.50
2022-12-23T19:19:22.255Z,7.00
2022-12-23T19:21:50.640Z,12.00
2022-12-23T19:24:19.112Z,7.00
2022-12-23T19:26:47.615Z,14.00
2022-12-23T19:29:17.234Z,14.50
2022-12-23T19:31:45.825Z,10.00
2022-12-23T19:34:15.774Z,13.00
2022-12-23T19:36:44.872Z,11.00
2022-12-23T19:39:16.998Z,12.50
2022-12-23T19:41:46.072Z,13.50
2022-12-23T19:44:14.864Z,12.00
2022-12-23T19:46:43.509Z,14.00
2022-12-23T19:49:19.947Z,12.50
2022-12-23T19:51:49.432Z,14.00
2022-12-23T19:54:18.955Z,12.00
2022-12-23T19:56:50.265Z,14.00
2022-12-23T19:59:19.901Z,9.00
2022-12-23T20:01:48.616Z,12.00
2022-12-23T20:04:17.356Z,12.00
2022-12-23T20:06:45.977Z,12.00
2022-12-23T20:09:14.525Z,13.00
2022-12-23T20:11:45.679Z,12.00
2022-12-23T20:14:16.498Z,14.00
2022-12-23T20:16:45.199Z,11.50
2022-12-23T20:19:13.573Z,11.67
2022-12-23T20:21:42.469Z,8.00
2022-12-23T20:24:10.944Z,11.50
2022-12-23T20:26:39.486Z,12.67
2022-12-23T20:29:09.358Z,11.00
2022-12-23T20:31:39.436Z,11.33
2022-12-23T20:34:10.839Z,8.00
2022-12-23T20:36:39.288Z,11.00
2022-12-23T20:39:07.871Z,11.50
2022-12-23T20:41:36.365Z,11.00
2022-12-23T20:46:53.596Z,11.50
2022-12-23T20:49:22.042Z,10.50
2022-12-23T20:54:18.429Z,11.00
2022-12-23T20:56:46.752Z,10.00
2022-12-23T20:59:14.939Z,13.00
2022-12-23T21:01:43.607Z,12.00
2022-12-23T21:04:16.052Z,9.00
2022-12-23T21:06:44.934Z,11.00
2022-12-23T21:09:15.735Z,11.50
2022-12-23T21:11:45.780Z,11.67
2022-12-23T21:14:15.172Z,9.50
2022-12-23T21:16:44.331Z,11.50
2022-12-23T21:19:18.803Z,12.00
2022-12-23T21:21:47.894Z,11.00
2022-12-23T21:24:16.806Z,10.00
2022-12-23T21:26:48.976Z,6.50
2022-12-23T21:29:21.434Z,5.00
2022-12-23T21:31:50.076Z,8.00
2022-12-23T21:34:18.707Z,9.50
2022-12-23T21:36:47.427Z,8.00
2022-12-23T21:39:16.846Z,10.00
2022-12-23T21:41:46.176Z,7.50
2022-12-23T21:46:43.980Z,9.00
2022-12-23T21:49:12.596Z,10.00
2022-12-23T21:51:41.981Z,10.00
2022-12-23T21:54:11.612Z,9.00
2022-12-23T21:56:40.898Z,7.00
2022-12-23T21:59:12.974Z,11.50
2022-12-23T22:01:42.542Z,11.50
2022-12-23T22:04:11.855Z,13.00
2022-12-23T22:06:44.056Z,12.50
2022-12-23T22:09:15.769Z,12.00
2022-12-23T22:11:44.781Z,13.00
2022-12-23T22:14:15.635Z,11.00
2022-12-23T22:16:44.344Z,13.00
2022-12-23T22:19:13.134Z,11.50
2022-12-23T22:21:42.921Z,12.00
2022-12-23T22:24:11.622Z,11.00
2022-12-23T22:26:41.007Z,10.00
2022-12-23T22:29:11.338Z,11.50
2022-12-23T22:31:46.324Z,12.00
2022-12-23T22:34:20.270Z,11.00
2022-12-23T22:36:49.639Z,14.00
2022-12-23T22:39:21.340Z,10.50
2022-12-23T22:41:51.812Z,9.00
2022-12-23T22:44:21.057Z,11.00
2022-12-23T22:46:49.621Z,10.00
2022-12-23T22:49:18.634Z,10.00
2022-12-23T22:51:47.113Z,8.50
2022-12-23T22:54:15.801Z,10.50
2022-12-23T22:56:46.214Z,8.50
2022-12-23T22:59:23.178Z,12.33
2022-12-23T23:01:53.169Z,8.50
2022-12-23T23:04:21.705Z,11.00
2022-12-23T23:06:50.075Z,12.50
2022-12-23T23:09:20.295Z,11.00
2022-12-23T23:11:50.244Z,11.00
2022-12-23T23:14:18.994Z,10.00
2022-12-23T23:16:47.477Z,2.00
2022-12-23T23:19:20.680Z,11.00
2022-12-23T23:21:49.294Z,10.00
2022-12-23T23:24:18.045Z,12.00
2022-12-23T23:26:46.526Z,10.00
2022-12-23T23:29:15.163Z,7.67
2022-12-23T23:31:44.405Z,11.00
2022-12-23T23:34:14.024Z,11.00
2022-12-23T23:36:42.699Z,9.00
2022-12-23T23:39:14.481Z,7.00
2022-12-23T23:41:43.268Z,10.00
2022-12-23T23:44:12.350Z,10.00
2022-12-23T23:46:40.854Z,9.50
2022-12-23T23:49:12.287Z,10.00
2022-12-23T23:51:42.200Z,10.00
2022-12-23T23:54:10.910Z,8.50
2022-12-23T23:56:39.682Z,10.00
2022-12-23T23:59:09.723Z,9.00
